createdAt,value
2019-02-25T00:00:18.363Z,18.84
2019-02-25T00:01:17.845Z,18.84
2019-02-25T00:02:19.213Z,18.85
2019-02-25T00:03:17.719Z,18.85
2019-02-25T00:04:17.953Z,18.84
2019-02-25T00:05:17.574Z,18.83
2019-02-25T00:06:17.309Z,18.81
2019-02-25T00:07:18.079Z,18.83
2019-02-25T00:08:18.035Z,18.81
2019-02-25T00:09:17.531Z,18.84
2019-02-25T00:10:17.441Z,18.81
2019-02-25T00:11:18.059Z,18.81
2019-02-25T00:12:17.425Z,18.81
2019-02-25T00:13:17.569Z,18.83
2019-02-25T00:14:18.060Z,18.8
2019-02-25T00:15:17.436Z,18.81
2019-02-25T00:16:17.595Z,18.78
2019-02-25T00:17:17.546Z,18.78
2019-02-25T00:18:17.778Z,18.77
2019-02-25T00:19:17.786Z,18.77
2019-02-25T00:20:17.583Z,18.78
2019-02-25T00:21:17.525Z,18.77
2019-02-25T00:22:17.586Z,18.77
2019-02-25T00:23:17.592Z,18.77
2019-02-25T00:24:19.132Z,18.77
2019-02-25T00:25:18.011Z,18.74
2019-02-25T00:26:17.195Z,18.74
2019-02-25T00:27:17.732Z,18.74
2019-02-25T00:28:17.380Z,18.75
2019-02-25T00:29:17.946Z,18.77
2019-02-25T00:30:17.972Z,18.75
2019-02-25T00:31:17.564Z,18.75
2019-02-25T00:32:18.870Z,18.75
2019-02-25T00:33:18.261Z,18.74
2019-02-25T00:34:17.760Z,18.75
2019-02-25T00:35:18.484Z,18.71
2019-02-25T00:36:17.759Z,18.73
2019-02-25T00:37:19.280Z,18.73
2019-02-25T00:38:17.511Z,18.71
2019-02-25T00:39:17.558Z,18.73
2019-02-25T00:40:17.605Z,18.71
2019-02-25T00:41:17.193Z,18.71
2019-02-25T00:42:17.371Z,18.7
2019-02-25T00:43:17.447Z,18.7
2019-02-25T00:44:17.433Z,18.73
2019-02-25T00:45:18.192Z,18.7
2019-02-25T00:46:17.436Z,18.7
2019-02-25T00:47:17.225Z,18.7
2019-02-25T00:48:17.382Z,18.68
2019-02-25T00:49:17.556Z,18.64
2019-02-25T00:50:17.574Z,18.67
2019-02-25T00:51:18.043Z,18.67
2019-02-25T00:52:17.380Z,18.66
2019-02-25T00:53:17.430Z,18.64
2019-02-25T00:54:17.305Z,18.67
2019-02-25T00:55:17.504Z,18.66
2019-02-25T00:56:17.350Z,18.67
2019-02-25T00:57:18.164Z,18.66
2019-02-25T00:58:17.556Z,18.66
2019-02-25T00:59:17.433Z,18.64
2019-02-25T01:00:17.454Z,18.66
2019-02-25T01:01:17.561Z,18.64
2019-02-25T01:02:17.397Z,18.66
2019-02-25T01:03:17.658Z,18.63
2019-02-25T01:04:17.257Z,18.62
2019-02-25T01:05:17.302Z,18.64
2019-02-25T01:06:17.147Z,18.62
2019-02-25T01:07:18.147Z,18.63
2019-02-25T01:08:17.438Z,18.6
2019-02-25T01:09:17.105Z,18.63
2019-02-25T01:10:17.655Z,18.6
2019-02-25T01:11:17.545Z,18.62
2019-02-25T01:12:17.857Z,18.62
2019-02-25T01:13:18.170Z,18.6
2019-02-25T01:14:17.212Z,18.58
2019-02-25T01:15:17.308Z,18.6
2019-02-25T01:16:17.596Z,18.58
2019-02-25T01:17:17.151Z,18.57
2019-02-25T01:18:17.286Z,18.6
2019-02-25T01:19:17.682Z,18.58
2019-02-25T01:20:17.629Z,18.58
2019-02-25T01:21:18.220Z,18.58
2019-02-25T01:22:17.807Z,18.56
2019-02-25T01:23:17.260Z,18.57
2019-02-25T01:24:17.696Z,18.6
2019-02-25T01:25:17.748Z,18.57
2019-02-25T01:26:17.775Z,18.56
2019-02-25T01:27:17.343Z,18.56
2019-02-25T01:28:17.468Z,18.56
2019-02-25T01:29:17.738Z,18.54
2019-02-25T01:30:17.569Z,18.54
2019-02-25T01:31:17.050Z,18.51
2019-02-25T01:32:17.571Z,18.54
2019-02-25T01:33:19.295Z,18.54
2019-02-25T01:34:18.684Z,18.53
2019-02-25T01:35:19.192Z,18.51
2019-02-25T01:36:17.258Z,18.51
2019-02-25T01:37:17.097Z,18.51
2019-02-25T01:38:17.300Z,18.5
2019-02-25T01:39:17.110Z,18.51
2019-02-25T01:40:17.534Z,18.5
2019-02-25T01:41:17.421Z,18.51
2019-02-25T01:42:18.352Z,18.5
2019-02-25T01:43:19.216Z,18.51
2019-02-25T01:44:17.020Z,18.49
2019-02-25T01:45:17.401Z,18.49
2019-02-25T01:46:17.096Z,18.51
2019-02-25T01:47:17.456Z,18.5
2019-02-25T01:48:17.419Z,18.49
2019-02-25T01:49:17.060Z,18.5
2019-02-25T01:50:17.412Z,18.49
2019-02-25T01:51:17.487Z,18.49
2019-02-25T01:52:17.200Z,18.46
2019-02-25T01:53:17.328Z,18.44
2019-02-25T01:54:17.354Z,18.43
2019-02-25T01:55:17.385Z,18.44
2019-02-25T01:56:18.516Z,18.44
2019-02-25T01:57:17.541Z,18.44
2019-02-25T01:58:17.225Z,18.44
2019-02-25T01:59:17.239Z,18.44
2019-02-25T02:00:17.793Z,18.46
2019-02-25T02:01:17.489Z,18.43
2019-02-25T02:02:17.495Z,18.43
2019-02-25T02:03:17.479Z,18.43
2019-02-25T02:04:17.597Z,18.41
2019-02-25T02:05:17.697Z,18.44
2019-02-25T02:06:17.432Z,18.44
2019-02-25T02:07:17.566Z,18.4
2019-02-25T02:08:17.854Z,18.41
2019-02-25T02:09:17.345Z,18.4
2019-02-25T02:10:17.467Z,18.4
2019-02-25T02:11:17.534Z,18.41
2019-02-25T02:12:17.364Z,18.4
2019-02-25T02:13:17.560Z,18.4
2019-02-25T02:14:17.141Z,18.39
2019-02-25T02:15:17.490Z,18.39
2019-02-25T02:16:17.534Z,18.37
2019-02-25T02:17:19.065Z,18.36
2019-02-25T02:18:18.194Z,18.37
2019-02-25T02:19:17.532Z,18.37
2019-02-25T02:20:17.419Z,18.37
2019-02-25T02:21:17.443Z,18.36
2019-02-25T02:22:17.624Z,18.39
2019-02-25T02:23:17.333Z,18.39
2019-02-25T02:24:19.193Z,18.35
2019-02-25T02:25:17.368Z,18.36
2019-02-25T02:26:17.360Z,18.36
2019-02-25T02:27:17.340Z,18.37
2019-02-25T02:28:17.230Z,18.36
2019-02-25T02:29:17.178Z,18.37
2019-02-25T02:30:17.622Z,18.35
2019-02-25T02:31:17.797Z,18.35
2019-02-25T02:32:17.425Z,18.33
2019-02-25T02:33:19.168Z,18.35
2019-02-25T02:34:17.350Z,18.33
2019-02-25T02:35:17.426Z,18.32
2019-02-25T02:36:17.355Z,18.33
2019-02-25T02:37:19.012Z,18.32
2019-02-25T02:38:17.206Z,18.32
2019-02-25T02:39:19.223Z,18.33
2019-02-25T02:40:17.702Z,18.32
2019-02-25T02:41:17.426Z,18.3
2019-02-25T02:42:17.560Z,18.3
2019-02-25T02:43:17.402Z,18.28
2019-02-25T02:44:17.615Z,18.29
2019-02-25T02:45:17.507Z,18.3
2019-02-25T02:46:17.321Z,18.29
2019-02-25T02:47:19.171Z,18.29
2019-02-25T02:48:17.205Z,18.29
2019-02-25T02:49:17.581Z,18.29
2019-02-25T02:50:17.860Z,18.28
2019-02-25T02:51:17.170Z,18.29
2019-02-25T02:52:17.202Z,18.26
2019-02-25T02:53:17.451Z,18.26
2019-02-25T02:54:17.808Z,18.26
2019-02-25T02:55:17.253Z,18.26
2019-02-25T02:56:17.297Z,18.29
2019-02-25T02:57:17.807Z,18.28
2019-02-25T02:58:17.165Z,18.28
2019-02-25T02:59:17.516Z,18.25
2019-02-25T03:00:17.349Z,18.26
2019-02-25T03:01:18.377Z,18.25
2019-02-25T03:02:18.116Z,18.25
2019-02-25T03:03:17.267Z,18.25
2019-02-25T03:04:17.831Z,18.22
2019-02-25T03:05:17.511Z,18.23
2019-02-25T03:06:19.107Z,18.23
2019-02-25T03:07:19.124Z,18.25
2019-02-25T03:08:17.165Z,18.22
2019-02-25T03:09:17.159Z,18.23
2019-02-25T03:10:17.466Z,18.23
2019-02-25T03:11:17.350Z,18.22
2019-02-25T03:12:17.448Z,18.22
2019-02-25T03:13:17.432Z,18.21
2019-02-25T03:14:17.481Z,18.22
2019-02-25T03:15:17.715Z,18.19
2019-02-25T03:16:17.230Z,18.19
2019-02-25T03:17:17.516Z,18.19
2019-02-25T03:18:17.279Z,18.21
2019-02-25T03:19:17.362Z,18.19
2019-02-25T03:20:17.457Z,18.22
2019-02-25T03:21:17.820Z,18.21
2019-02-25T03:22:17.658Z,18.18
2019-02-25T03:23:19.071Z,18.19
2019-02-25T03:24:17.969Z,18.18
2019-02-25T03:25:17.734Z,18.18
2019-02-25T03:26:17.180Z,18.18
2019-02-25T03:27:17.476Z,18.16
2019-02-25T03:28:17.571Z,18.18
2019-02-25T03:29:17.732Z,18.18
2019-02-25T03:30:17.371Z,18.18
2019-02-25T03:31:17.334Z,18.19
2019-02-25T03:32:17.839Z,18.19
2019-02-25T03:33:17.026Z,18.16
2019-02-25T03:34:17.392Z,18.15
2019-02-25T03:35:17.769Z,18.15
2019-02-25T03:36:17.369Z,18.16
2019-02-25T03:37:17.143Z,18.12
2019-02-25T03:38:18.491Z,18.16
2019-02-25T03:39:17.025Z,18.13
2019-02-25T03:40:17.609Z,18.13
2019-02-25T03:41:17.230Z,18.13
2019-02-25T03:42:17.400Z,18.15
2019-02-25T03:43:17.568Z,18.13
2019-02-25T03:44:17.404Z,18.12
2019-02-25T03:45:18.135Z,18.12
2019-02-25T03:46:17.365Z,18.11
2019-02-25T03:47:17.735Z,18.13
2019-02-25T03:48:17.100Z,18.12
2019-02-25T03:49:17.501Z,18.12
2019-02-25T03:50:17.489Z,18.11
2019-02-25T03:51:17.400Z,18.09
2019-02-25T03:52:17.453Z,18.11
2019-02-25T03:53:18.087Z,18.11
2019-02-25T03:54:17.624Z,18.11
2019-02-25T03:55:19.284Z,18.11
2019-02-25T03:56:17.241Z,18.08
2019-02-25T03:57:17.256Z,18.07
2019-02-25T03:58:17.351Z,18.09
2019-02-25T03:59:17.114Z,18.11
2019-02-25T04:00:17.499Z,18.09
2019-02-25T04:01:18.222Z,18.07
2019-02-25T04:02:17.313Z,18.08
2019-02-25T04:03:17.748Z,18.08
2019-02-25T04:04:17.545Z,18.08
2019-02-25T04:05:17.353Z,18.09
2019-02-25T04:06:18.358Z,18.09
2019-02-25T04:07:18.072Z,18.07
2019-02-25T04:08:17.529Z,18.05
2019-02-25T04:09:18.468Z,18.11
2019-02-25T04:10:17.617Z,18.08
2019-02-25T04:11:18.143Z,18.07
2019-02-25T04:12:17.511Z,18.07
2019-02-25T04:13:17.438Z,18.07
2019-02-25T04:14:19.078Z,18.05
2019-02-25T04:15:17.310Z,18.04
2019-02-25T04:16:17.267Z,18.05
2019-02-25T04:17:17.382Z,18.07
2019-02-25T04:18:17.550Z,18.05
2019-02-25T04:19:17.184Z,18.04
2019-02-25T04:20:17.378Z,18.04
2019-02-25T04:21:17.328Z,18.04
2019-02-25T04:22:17.167Z,18.04
2019-02-25T04:23:17.589Z,18.04
2019-02-25T04:24:17.630Z,18.01
2019-02-25T04:25:17.443Z,18.01
2019-02-25T04:26:17.501Z,18.04
2019-02-25T04:27:19.127Z,18.02
2019-02-25T04:28:18.034Z,18.02
2019-02-25T04:29:17.727Z,18.04
2019-02-25T04:30:17.767Z,18.01
2019-02-25T04:31:17.115Z,18.04
2019-02-25T04:32:17.949Z,18.01
2019-02-25T04:33:17.533Z,18.01
2019-02-25T04:34:19.117Z,18.01
2019-02-25T04:35:17.593Z,18.01
2019-02-25T04:36:17.225Z,18
2019-02-25T04:37:17.139Z,18.01
2019-02-25T04:38:17.227Z,18.01
2019-02-25T04:39:17.294Z,18.01
2019-02-25T04:40:17.094Z,18.01
2019-02-25T04:41:17.300Z,18.01
2019-02-25T04:42:17.821Z,18.02
2019-02-25T04:43:17.425Z,18
2019-02-25T04:44:17.416Z,18.02
2019-02-25T04:45:17.600Z,18.01
2019-02-25T04:46:17.765Z,18.02
2019-02-25T04:47:17.136Z,18.02
2019-02-25T04:48:17.182Z,18.07
2019-02-25T04:49:17.162Z,18.04
2019-02-25T04:50:17.244Z,18.07
2019-02-25T04:51:17.978Z,18.07
2019-02-25T04:52:18.276Z,18.09
2019-02-25T04:53:17.365Z,18.09
2019-02-25T04:54:17.585Z,18.08
2019-02-25T04:55:17.646Z,18.08
2019-02-25T04:56:17.115Z,18.08
2019-02-25T04:57:17.387Z,18.09
2019-02-25T04:58:17.526Z,18.08
2019-02-25T04:59:17.222Z,18.09
2019-02-25T05:00:18.527Z,18.08
2019-02-25T05:01:17.537Z,18.12
2019-02-25T05:02:17.456Z,18.09
2019-02-25T05:03:19.126Z,18.13
2019-02-25T05:04:17.584Z,18.16
2019-02-25T05:05:17.419Z,18.18
2019-02-25T05:06:17.898Z,18.21
2019-02-25T05:07:17.250Z,18.21
2019-02-25T05:08:17.214Z,18.23
2019-02-25T05:09:17.949Z,18.25
2019-02-25T05:10:17.179Z,18.29
2019-02-25T05:11:17.844Z,18.3
2019-02-25T05:12:18.226Z,18.33
2019-02-25T05:13:18.144Z,18.33
2019-02-25T05:14:17.398Z,18.36
2019-02-25T05:15:17.356Z,18.37
2019-02-25T05:16:17.630Z,18.39
2019-02-25T05:17:17.109Z,18.41
2019-02-25T05:18:18.194Z,18.43
2019-02-25T05:19:17.545Z,18.46
2019-02-25T05:20:17.529Z,18.47
2019-02-25T05:21:17.431Z,18.49
2019-02-25T05:22:17.468Z,18.5
2019-02-25T05:23:17.574Z,18.53
2019-02-25T05:24:17.319Z,18.54
2019-02-25T05:25:17.883Z,18.56
2019-02-25T05:26:17.525Z,18.57
2019-02-25T05:27:17.487Z,18.58
2019-02-25T05:28:17.593Z,18.6
2019-02-25T05:29:17.549Z,18.62
2019-02-25T05:30:17.412Z,18.67
2019-02-25T05:31:17.235Z,18.67
2019-02-25T05:32:17.877Z,18.67
2019-02-25T05:33:18.044Z,18.67
2019-02-25T05:34:18.505Z,18.71
2019-02-25T05:35:17.040Z,18.73
2019-02-25T05:36:19.092Z,18.73
2019-02-25T05:37:17.602Z,18.74
2019-02-25T05:38:17.282Z,18.78
2019-02-25T05:39:17.418Z,18.78
2019-02-25T05:40:17.529Z,18.78
2019-02-25T05:41:17.549Z,18.81
2019-02-25T05:42:17.772Z,18.81
2019-02-25T05:43:18.769Z,18.81
2019-02-25T05:44:17.084Z,18.85
2019-02-25T05:45:17.277Z,18.88
2019-02-25T05:46:17.385Z,18.87
2019-02-25T05:47:17.360Z,18.87
2019-02-25T05:48:17.145Z,18.91
2019-02-25T05:49:17.412Z,18.9
2019-02-25T05:50:17.516Z,18.92
2019-02-25T05:51:17.506Z,18.94
2019-02-25T05:52:17.620Z,18.94
2019-02-25T05:53:17.310Z,18.97
2019-02-25T05:54:17.607Z,18.97
2019-02-25T05:55:17.064Z,18.99
2019-02-25T05:56:17.711Z,18.99
2019-02-25T05:57:17.972Z,19.02
2019-02-25T05:58:17.032Z,19.01
2019-02-25T05:59:17.552Z,19.03
2019-02-25T06:00:17.516Z,19.06
2019-02-25T06:01:17.228Z,19.06
2019-02-25T06:02:17.370Z,18.91
2019-02-25T06:03:17.783Z,18.8
2019-02-25T06:04:17.394Z,18.68
2019-02-25T06:05:17.503Z,18.57
2019-02-25T06:06:17.166Z,18.47
2019-02-25T06:07:17.326Z,18.36
2019-02-25T06:08:17.131Z,18.26
2019-02-25T06:09:17.860Z,18.16
2019-02-25T06:10:17.167Z,18.05
2019-02-25T06:11:17.597Z,17.95
2019-02-25T06:12:17.887Z,17.85
2019-02-25T06:13:17.074Z,17.73
2019-02-25T06:14:18.190Z,17.68
2019-02-25T06:15:17.276Z,17.68
2019-02-25T06:16:17.434Z,17.74
2019-02-25T06:17:17.809Z,17.81
2019-02-25T06:18:18.921Z,17.89
2019-02-25T06:19:17.213Z,17.93
2019-02-25T06:20:17.501Z,18
2019-02-25T06:21:17.452Z,18.07
2019-02-25T06:22:17.096Z,18.11
2019-02-25T06:23:19.117Z,18.13
2019-02-25T06:24:17.153Z,18.18
2019-02-25T06:25:17.582Z,18.22
2019-02-25T06:26:17.347Z,18.25
2019-02-25T06:27:17.364Z,18.28
2019-02-25T06:28:17.302Z,18.3
2019-02-25T06:29:17.057Z,18.3
2019-02-25T06:30:17.486Z,18.36
2019-02-25T06:31:17.477Z,18.36
2019-02-25T06:32:17.586Z,18.37
2019-02-25T06:33:17.726Z,18.39
2019-02-25T06:34:17.354Z,18.41
2019-02-25T06:35:17.136Z,18.41
2019-02-25T06:36:19.048Z,18.41
2019-02-25T06:37:19.117Z,18.47
2019-02-25T06:38:17.240Z,18.47
2019-02-25T06:39:18.279Z,18.46
2019-02-25T06:40:19.031Z,18.5
2019-02-25T06:41:16.987Z,18.5
2019-02-25T06:42:17.201Z,18.49
2019-02-25T06:43:18.913Z,18.53
2019-02-25T06:44:17.429Z,18.51
2019-02-25T06:45:17.512Z,18.53
2019-02-25T06:46:17.101Z,18.53
2019-02-25T06:47:17.286Z,18.54
2019-02-25T06:48:18.724Z,18.56
2019-02-25T06:49:17.084Z,18.56
2019-02-25T06:50:17.212Z,18.54
2019-02-25T06:51:17.702Z,18.54
2019-02-25T06:52:17.370Z,18.57
2019-02-25T06:53:17.186Z,18.54
2019-02-25T06:54:17.837Z,18.56
2019-02-25T06:55:17.341Z,18.57
2019-02-25T06:56:17.373Z,18.53
2019-02-25T06:57:18.910Z,18.58
2019-02-25T06:58:17.217Z,18.56
2019-02-25T06:59:17.147Z,18.57
2019-02-25T07:00:17.227Z,18.57
2019-02-25T07:01:17.693Z,18.56
2019-02-25T07:02:17.197Z,18.58
2019-02-25T07:03:17.381Z,18.57
2019-02-25T07:04:17.126Z,18.58
2019-02-25T07:05:17.647Z,18.56
2019-02-25T07:06:17.509Z,18.57
2019-02-25T07:07:17.016Z,18.58
2019-02-25T07:08:17.441Z,18.56
2019-02-25T07:09:17.286Z,18.56
2019-02-25T07:10:17.228Z,18.56
2019-02-25T07:11:17.342Z,18.56
2019-02-25T07:12:17.385Z,18.58
2019-02-25T07:13:17.158Z,18.54
2019-02-25T07:14:17.371Z,18.57
2019-02-25T07:15:17.484Z,18.54
2019-02-25T07:16:17.286Z,18.56
2019-02-25T07:17:17.206Z,18.56
2019-02-25T07:18:17.256Z,18.54
2019-02-25T07:19:16.938Z,18.54
2019-02-25T07:20:17.022Z,18.53
2019-02-25T07:21:17.094Z,18.53
2019-02-25T07:22:17.735Z,18.53
2019-02-25T07:23:18.160Z,18.53
2019-02-25T07:24:17.049Z,18.51
2019-02-25T07:25:17.142Z,18.51
2019-02-25T07:26:17.456Z,18.5
2019-02-25T07:27:16.978Z,18.53
2019-02-25T07:28:17.124Z,18.51
2019-02-25T07:29:17.458Z,18.49
2019-02-25T07:30:17.487Z,18.47
2019-02-25T07:31:17.395Z,18.49
2019-02-25T07:32:17.595Z,18.47
2019-02-25T07:33:17.021Z,18.46
2019-02-25T07:34:17.522Z,18.46
2019-02-25T07:35:17.419Z,18.44
2019-02-25T07:36:18.035Z,18.44
2019-02-25T07:37:18.358Z,18.41
2019-02-25T07:38:17.431Z,18.47
2019-02-25T07:39:17.065Z,18.46
2019-02-25T07:40:17.502Z,18.44
2019-02-25T07:41:17.455Z,18.46
2019-02-25T07:42:17.143Z,18.43
2019-02-25T07:43:17.517Z,18.43
2019-02-25T07:44:17.990Z,18.41
2019-02-25T07:45:17.378Z,18.4
2019-02-25T07:46:17.702Z,18.41
2019-02-25T07:47:17.583Z,18.43
2019-02-25T07:48:17.193Z,18.4
2019-02-25T07:49:17.628Z,18.39
2019-02-25T07:50:17.532Z,18.4
2019-02-25T07:51:17.220Z,18.37
2019-02-25T07:52:17.314Z,18.4
2019-02-25T07:53:17.822Z,18.39
2019-02-25T07:54:17.480Z,18.39
2019-02-25T07:55:19.109Z,18.39
2019-02-25T07:56:17.407Z,18.4
2019-02-25T07:57:18.968Z,18.39
2019-02-25T07:58:17.477Z,18.37
2019-02-25T07:59:17.001Z,18.36
2019-02-25T08:00:17.243Z,18.36
2019-02-25T08:01:17.563Z,18.37
2019-02-25T08:02:17.397Z,18.37
2019-02-25T08:03:17.424Z,18.36
2019-02-25T08:04:17.450Z,18.39
2019-02-25T08:05:18.125Z,18.39
2019-02-25T08:06:18.945Z,18.39
2019-02-25T08:07:17.075Z,18.37
2019-02-25T08:08:17.565Z,18.4
2019-02-25T08:09:17.072Z,18.39
2019-02-25T08:10:17.189Z,18.37
2019-02-25T08:11:17.229Z,18.4
2019-02-25T08:12:17.384Z,18.37
2019-02-25T08:13:17.008Z,18.37
2019-02-25T08:14:17.454Z,18.39
2019-02-25T08:15:17.013Z,18.36
2019-02-25T08:16:16.923Z,18.37
2019-02-25T08:17:17.315Z,18.39
2019-02-25T08:18:17.732Z,18.37
2019-02-25T08:19:16.890Z,18.37
2019-02-25T08:20:17.651Z,18.39
2019-02-25T08:21:17.214Z,18.37
2019-02-25T08:22:18.826Z,18.35
2019-02-25T08:23:17.665Z,18.37
2019-02-25T08:24:17.398Z,18.35
2019-02-25T08:25:17.486Z,18.3
2019-02-25T08:26:17.477Z,18.35
2019-02-25T08:27:18.229Z,18.32
2019-02-25T08:28:17.654Z,18.32
2019-02-25T08:29:17.283Z,18.33
2019-02-25T08:30:17.636Z,18.32
2019-02-25T08:31:18.876Z,18.3
2019-02-25T08:32:17.219Z,18.32
2019-02-25T08:33:17.174Z,18.28
2019-02-25T08:34:19.629Z,18.29
2019-02-25T08:35:17.271Z,18.3
2019-02-25T08:36:16.977Z,18.29
2019-02-25T08:37:17.414Z,18.3
2019-02-25T08:38:17.346Z,18.28
2019-02-25T08:39:18.257Z,18.28
2019-02-25T08:40:17.121Z,18.3
2019-02-25T08:41:17.216Z,18.28
2019-02-25T08:42:17.165Z,18.26
2019-02-25T08:43:17.456Z,18.3
2019-02-25T08:44:17.568Z,18.29
2019-02-25T08:45:17.414Z,18.28
2019-02-25T08:46:17.299Z,18.33
2019-02-25T08:47:17.414Z,18.3
2019-02-25T08:48:17.363Z,18.36
2019-02-25T08:49:18.354Z,18.36
2019-02-25T08:50:17.964Z,18.36
2019-02-25T08:51:17.346Z,18.4
2019-02-25T08:52:17.268Z,18.41
2019-02-25T08:53:17.148Z,18.41
2019-02-25T08:54:17.587Z,18.43
2019-02-25T08:55:17.286Z,18.46
2019-02-25T08:56:17.456Z,18.5
2019-02-25T08:57:17.104Z,18.53
2019-02-25T08:58:18.485Z,18.56
2019-02-25T08:59:17.278Z,18.56
2019-02-25T09:00:16.952Z,18.57
2019-02-25T09:01:17.235Z,18.62
2019-02-25T09:02:17.333Z,18.63
2019-02-25T09:03:17.026Z,18.64
2019-02-25T09:04:17.249Z,18.7
2019-02-25T09:05:17.492Z,18.7
2019-02-25T09:06:17.259Z,18.73
2019-02-25T09:07:17.010Z,18.75
2019-02-25T09:08:18.006Z,18.75
2019-02-25T09:09:17.441Z,18.78
2019-02-25T09:10:17.537Z,18.81
2019-02-25T09:11:17.022Z,18.83
2019-02-25T09:12:18.440Z,18.88
2019-02-25T09:13:17.258Z,18.88
2019-02-25T09:14:17.069Z,18.9
2019-02-25T09:15:17.531Z,18.95
2019-02-25T09:16:17.300Z,18.95
2019-02-25T09:17:17.359Z,18.97
2019-02-25T09:18:16.998Z,19.01
2019-02-25T09:19:17.149Z,19.01
2019-02-25T09:20:17.155Z,19.02
2019-02-25T09:21:17.084Z,19.02
2019-02-25T09:22:17.080Z,19.06
2019-02-25T09:23:17.597Z,19.06
2019-02-25T09:24:19.070Z,19.09
2019-02-25T09:25:16.985Z,19.09
2019-02-25T09:26:17.512Z,19.11
2019-02-25T09:27:18.010Z,19.12
2019-02-25T09:28:17.213Z,19.13
2019-02-25T09:29:17.444Z,19.13
2019-02-25T09:30:17.263Z,19.13
2019-02-25T09:31:17.089Z,19.16
2019-02-25T09:32:19.446Z,19.19
2019-02-25T09:33:18.311Z,19.18
2019-02-25T09:34:17.349Z,19.22
2019-02-25T09:35:19.078Z,19.23
2019-02-25T09:36:17.509Z,19.25
2019-02-25T09:37:17.453Z,19.26
2019-02-25T09:38:17.361Z,19.29
2019-02-25T09:39:17.190Z,19.32
2019-02-25T09:40:17.166Z,19.33
2019-02-25T09:41:17.573Z,19.33
2019-02-25T09:42:17.106Z,19.33
2019-02-25T09:43:17.341Z,19.33
2019-02-25T09:44:17.969Z,19.35
2019-02-25T09:45:17.053Z,19.35
2019-02-25T09:46:17.236Z,19.39
2019-02-25T09:47:17.868Z,19.39
2019-02-25T09:48:18.944Z,19.4
2019-02-25T09:49:17.180Z,19.42
2019-02-25T09:50:17.053Z,19.43
2019-02-25T09:51:17.175Z,19.46
2019-02-25T09:52:17.003Z,19.47
2019-02-25T09:53:17.171Z,19.49
2019-02-25T09:54:18.044Z,19.5
2019-02-25T09:55:17.089Z,19.49
2019-02-25T09:56:17.081Z,19.5
2019-02-25T09:57:17.009Z,19.5
2019-02-25T09:58:16.991Z,19.53
2019-02-25T09:59:17.438Z,19.54
2019-02-25T10:00:17.352Z,19.57
2019-02-25T10:01:16.987Z,19.58
2019-02-25T10:02:17.362Z,19.57
2019-02-25T10:03:17.022Z,19.61
2019-02-25T10:04:17.122Z,19.61
2019-02-25T10:05:17.219Z,19.61
2019-02-25T10:06:17.177Z,19.63
2019-02-25T10:07:17.392Z,19.63
2019-02-25T10:08:17.636Z,19.68
2019-02-25T10:09:17.169Z,19.68
2019-02-25T10:10:17.302Z,19.71
2019-02-25T10:11:17.609Z,19.71
2019-02-25T10:12:17.036Z,19.73
2019-02-25T10:13:17.112Z,19.75
2019-02-25T10:14:16.877Z,19.74
2019-02-25T10:15:18.391Z,19.75
2019-02-25T10:16:18.957Z,19.75
2019-02-25T10:17:24.380Z,19.77
2019-02-25T10:18:17.167Z,19.78
2019-02-25T10:19:17.386Z,19.75
2019-02-25T10:20:17.546Z,19.81
2019-02-25T10:21:17.167Z,19.8
2019-02-25T10:22:17.298Z,19.8
2019-02-25T10:23:16.990Z,19.81
2019-02-25T10:24:17.058Z,19.82
2019-02-25T10:25:17.281Z,19.82
2019-02-25T10:26:16.964Z,19.85
2019-02-25T10:27:17.458Z,19.86
2019-02-25T10:28:17.770Z,19.85
2019-02-25T10:29:17.065Z,19.86
2019-02-25T10:30:17.070Z,19.86
2019-02-25T10:31:17.771Z,19.89
2019-02-25T10:32:17.171Z,19.91
2019-02-25T10:33:17.046Z,19.91
2019-02-25T10:34:18.316Z,19.89
2019-02-25T10:35:18.061Z,19.89
2019-02-25T10:36:17.415Z,19.92
2019-02-25T10:37:17.923Z,19.92
2019-02-25T10:38:21.797Z,19.93
2019-02-25T10:39:20.073Z,19.95
2019-02-25T10:40:27.845Z,19.95
2019-02-25T10:41:27.996Z,19.96
2019-02-25T10:42:17.109Z,19.98
2019-02-25T10:43:17.181Z,19.96
2019-02-25T10:44:17.036Z,19.95
2019-02-25T10:45:17.231Z,19.95
2019-02-25T10:46:18.049Z,20.01
2019-02-25T10:47:21.592Z,19.99
2019-02-25T10:48:26.110Z,19.99
2019-02-25T10:49:17.146Z,19.98
2019-02-25T10:50:17.264Z,20.02
2019-02-25T10:51:17.470Z,20.04
2019-02-25T10:52:17.722Z,20.01
2019-02-25T10:53:22.284Z,20.01
2019-02-25T10:54:25.634Z,20.02
2019-02-25T10:55:16.974Z,19.99
2019-02-25T10:56:26.178Z,20.01
2019-02-25T10:57:17.021Z,20.04
2019-02-25T10:58:17.354Z,20.05
2019-02-25T10:59:17.985Z,20.05
2019-02-25T11:00:17.035Z,20.02
2019-02-25T11:01:24.880Z,20.07
2019-02-25T11:02:19.732Z,20.05
2019-02-25T11:03:22.131Z,20.04
2019-02-25T11:04:26.527Z,20.05
2019-02-25T11:05:30.840Z,20.05
2019-02-25T11:06:16.983Z,20.08
2019-02-25T11:07:17.031Z,20.08
2019-02-25T11:08:17.494Z,20.07
2019-02-25T11:09:18.348Z,20.08
2019-02-25T11:10:22.675Z,20.09
2019-02-25T11:11:27.404Z,20.09
2019-02-25T11:12:17.449Z,20.11
2019-02-25T11:13:17.220Z,20.12
2019-02-25T11:14:17.091Z,20.11
2019-02-25T11:15:17.343Z,20.11
2019-02-25T11:16:20.732Z,20.12
2019-02-25T11:17:24.726Z,20.12
2019-02-25T11:18:28.567Z,20.15
2019-02-25T11:19:16.830Z,20.15
2019-02-25T11:20:17.750Z,20.13
2019-02-25T11:21:17.017Z,20.15
2019-02-25T11:22:17.231Z,20.15
2019-02-25T11:23:21.841Z,20.18
2019-02-25T11:24:25.661Z,20.16
2019-02-25T11:25:30.343Z,20.16
2019-02-25T11:26:16.954Z,20.16
2019-02-25T11:27:18.900Z,20.16
2019-02-25T11:28:26.326Z,20.15
2019-02-25T11:29:17.314Z,20.15
2019-02-25T11:30:24.279Z,20.13
2019-02-25T11:31:29.397Z,20.15
2019-02-25T11:32:28.058Z,20.16
2019-02-25T11:33:17.044Z,20.13
2019-02-25T11:34:17.425Z,20.15
2019-02-25T11:35:17.131Z,20.16
2019-02-25T11:36:22.298Z,20.15
2019-02-25T11:37:27.222Z,20.16
2019-02-25T11:38:17.152Z,20.16
2019-02-25T11:39:17.273Z,20.16
2019-02-25T11:40:18.246Z,20.19
2019-02-25T11:41:17.163Z,20.19
2019-02-25T11:42:20.944Z,20.2
2019-02-25T11:43:21.846Z,20.16
2019-02-25T11:44:31.502Z,20.18
2019-02-25T11:45:18.873Z,20.16
2019-02-25T11:46:17.442Z,20.16
2019-02-25T11:47:17.080Z,20.16
2019-02-25T11:48:18.863Z,20.18
2019-02-25T11:49:17.406Z,20.18
2019-02-25T11:50:17.808Z,20.2
2019-02-25T11:51:17.267Z,20.2
2019-02-25T11:52:17.595Z,20.2
2019-02-25T11:53:17.006Z,20.2
2019-02-25T11:54:17.168Z,20.2
2019-02-25T11:55:17.378Z,20.2
2019-02-25T11:56:17.047Z,20.19
2019-02-25T11:57:18.018Z,20.19
2019-02-25T11:58:17.358Z,20.2
2019-02-25T11:59:17.438Z,20.2
2019-02-25T12:00:17.279Z,20.2
2019-02-25T12:01:17.133Z,20.19
2019-02-25T12:02:26.383Z,20.22
2019-02-25T12:03:17.645Z,20.22
2019-02-25T12:04:17.368Z,20.22
2019-02-25T12:05:17.008Z,20.22
2019-02-25T12:06:17.513Z,20.25
2019-02-25T12:07:17.516Z,20.22
2019-02-25T12:08:17.155Z,20.23
2019-02-25T12:09:18.880Z,20.23
2019-02-25T12:10:17.228Z,20.2
2019-02-25T12:11:17.202Z,20.25
2019-02-25T12:12:17.068Z,20.23
2019-02-25T12:13:17.600Z,20.2
2019-02-25T12:14:17.953Z,20.23
2019-02-25T12:15:18.822Z,20.22
2019-02-25T12:16:17.285Z,20.25
2019-02-25T12:17:17.280Z,20.25
2019-02-25T12:18:17.222Z,20.23
2019-02-25T12:19:18.568Z,20.22
2019-02-25T12:20:17.219Z,20.25
2019-02-25T12:21:16.989Z,20.23
2019-02-25T12:22:17.346Z,20.25
2019-02-25T12:23:17.556Z,20.25
2019-02-25T12:24:17.149Z,20.23
2019-02-25T12:25:18.019Z,20.23
2019-02-25T12:26:16.839Z,20.26
2019-02-25T12:27:17.265Z,20.27
2019-02-25T12:28:17.200Z,20.26
2019-02-25T12:29:17.167Z,20.25
2019-02-25T12:30:17.252Z,20.23
2019-02-25T12:31:17.590Z,20.25
2019-02-25T12:32:17.408Z,20.27
2019-02-25T12:33:17.075Z,20.29
2019-02-25T12:34:17.296Z,20.26
2019-02-25T12:35:16.949Z,20.23
2019-02-25T12:36:16.890Z,20.22
2019-02-25T12:37:17.085Z,20.2
2019-02-25T12:38:17.766Z,20.19
2019-02-25T12:39:17.441Z,20.19
2019-02-25T12:40:17.206Z,20.18
2019-02-25T12:41:16.957Z,20.16
2019-02-25T12:42:17.209Z,20.18
2019-02-25T12:43:16.919Z,20.18
2019-02-25T12:44:18.883Z,20.18
2019-02-25T12:45:16.926Z,20.19
2019-02-25T12:46:17.852Z,20.19
2019-02-25T12:47:18.031Z,20.2
2019-02-25T12:48:17.348Z,20.2
2019-02-25T12:49:17.943Z,20.22
2019-02-25T12:50:17.233Z,20.26
2019-02-25T12:51:17.216Z,20.25
2019-02-25T12:52:17.058Z,20.25
2019-02-25T12:53:17.255Z,20.26
2019-02-25T12:54:17.474Z,20.27
2019-02-25T12:55:17.186Z,20.27